sensor_id;sensor_type;location;lat;lon;timestamp;P1;durP1;ratioP1;P2;durP2;ratioP2
11614;SDS011;5863;52.832;4.758;2022-07-04T00:02:05;4.22;;;2.03;;
11614;SDS011;5863;52.832;4.758;2022-07-04T00:04:32;3.72;;;2.22;;
11614;SDS011;5863;52.832;4.758;2022-07-04T00:07:00;2.83;;;2.10;;
11614;SDS011;5863;52.832;4.758;2022-07-04T00:09:27;4.13;;;1.85;;
11614;SDS011;5863;52.832;4.758;2022-07-04T00:11:54;3.33;;;2.10;;
11614;SDS011;5863;52.832;4.758;2022-07-04T00:14:20;5.15;;;2.25;;
11614;SDS011;5863;52.832;4.758;2022-07-04T00:16:47;2.85;;;2.03;;
11614;SDS011;5863;52.832;4.758;2022-07-04T00:19:14;4.68;;;2.42;;
11614;SDS011;5863;52.832;4.758;2022-07-04T00:21:41;6.45;;;2.33;;
11614;SDS011;5863;52.832;4.758;2022-07-04T00:24:08;3.58;;;2.10;;
11614;SDS011;5863;52.832;4.758;2022-07-04T00:26:35;2.78;;;2.00;;
11614;SDS011;5863;52.832;4.758;2022-07-04T00:29:02;4.10;;;1.92;;
11614;SDS011;5863;52.832;4.758;2022-07-04T00:31:29;3.70;;;2.17;;
11614;SDS011;5863;52.832;4.758;2022-07-04T00:33:55;2.08;;;1.85;;
11614;SDS011;5863;52.832;4.758;2022-07-04T00:36:22;3.33;;;2.10;;
11614;SDS011;5863;52.832;4.758;2022-07-04T00:38:49;4.95;;;2.00;;
11614;SDS011;5863;52.832;4.758;2022-07-04T00:41:17;3.35;;;2.10;;
11614;SDS011;5863;52.832;4.758;2022-07-04T00:43:44;5.43;;;2.10;;
11614;SDS011;5863;52.832;4.758;2022-07-04T00:46:25;6.40;;;2.33;;
11614;SDS011;5863;52.832;4.758;2022-07-04T00:48:52;5.28;;;2.20;;
11614;SDS011;5863;52.832;4.758;2022-07-04T00:51:19;3.05;;;2.05;;
11614;SDS011;5863;52.832;4.758;2022-07-04T00:53:46;4.30;;;2.03;;
11614;SDS011;5863;52.832;4.758;2022-07-04T00:56:13;4.43;;;2.05;;
11614;SDS011;5863;52.832;4.758;2022-07-04T00:58:41;4.00;;;2.13;;
11614;SDS011;5863;52.832;4.758;2022-07-04T01:01:08;5.57;;;2.00;;
11614;SDS011;5863;52.832;4.758;2022-07-04T01:03:34;4.07;;;2.10;;
11614;SDS011;5863;52.832;4.758;2022-07-04T01:06:01;4.55;;;2.10;;
11614;SDS011;5863;52.832;4.758;2022-07-04T01:08:29;3.05;;;1.75;;
11614;SDS011;5863;52.832;4.758;2022-07-04T01:10:56;4.25;;;2.08;;
11614;SDS011;5863;52.832;4.758;2022-07-04T01:13:23;3.05;;;2.00;;
11614;SDS011;5863;52.832;4.758;2022-07-04T01:15:51;5.18;;;2.03;;
11614;SDS011;5863;52.832;4.758;2022-07-04T01:18:18;3.00;;;1.80;;
11614;SDS011;5863;52.832;4.758;2022-07-04T01:20:46;3.05;;;2.05;;
11614;SDS011;5863;52.832;4.758;2022-07-04T01:23:13;4.28;;;2.05;;
11614;SDS011;5863;52.832;4.758;2022-07-04T01:25:41;3.95;;;1.90;;
11614;SDS011;5863;52.832;4.758;2022-07-04T01:28:08;2.45;;;1.98;;
11614;SDS011;5863;52.832;4.758;2022-07-04T01:30:35;6.32;;;2.25;;
11614;SDS011;5863;52.832;4.758;2022-07-04T01:33:03;3.63;;;2.00;;
11614;SDS011;5863;52.832;4.758;2022-07-04T01:35:30;4.78;;;2.33;;
11614;SDS011;5863;52.832;4.758;2022-07-04T01:37:58;4.43;;;2.30;;
11614;SDS011;5863;52.832;4.758;2022-07-04T01:40:25;5.55;;;2.30;;
11614;SDS011;5863;52.832;4.758;2022-07-04T01:42:52;4.93;;;2.40;;
11614;SDS011;5863;52.832;4.758;2022-07-04T01:45:19;6.43;;;2.33;;
11614;SDS011;5863;52.832;4.758;2022-07-04T01:47:46;4.20;;;1.92;;
11614;SDS011;5863;52.832;4.758;2022-07-04T01:50:12;3.85;;;2.30;;
11614;SDS011;5863;52.832;4.758;2022-07-04T01:52:39;5.43;;;2.22;;
11614;SDS011;5863;52.832;4.758;2022-07-04T01:55:08;5.97;;;2.28;;
11614;SDS011;5863;52.832;4.758;2022-07-04T01:57:36;2.60;;;2.17;;
11614;SDS011;5863;52.832;4.758;2022-07-04T02:00:03;3.67;;;2.38;;
11614;SDS011;5863;52.832;4.758;2022-07-04T02:02:49;6.22;;;3.03;;
11614;SDS011;5863;52.832;4.758;2022-07-04T02:05:15;6.53;;;2.50;;
11614;SDS011;5863;52.832;4.758;2022-07-04T02:07:43;4.90;;;2.65;;
11614;SDS011;5863;52.832;4.758;2022-07-04T02:10:11;2.05;;;1.95;;
11614;SDS011;5863;52.832;4.758;2022-07-04T02:12:38;4.30;;;2.20;;
11614;SDS011;5863;52.832;4.758;2022-07-04T02:15:28;2.72;;;2.10;;
11614;SDS011;5863;52.832;4.758;2022-07-04T02:17:56;3.65;;;2.20;;
11614;SDS011;5863;52.832;4.758;2022-07-04T02:20:23;6.03;;;2.20;;
11614;SDS011;5863;52.832;4.758;2022-07-04T02:22:50;5.75;;;2.22;;
11614;SDS011;5863;52.832;4.758;2022-07-04T02:25:18;5.15;;;2.00;;
11614;SDS011;5863;52.832;4.758;2022-07-04T02:27:45;7.00;;;2.10;;
11614;SDS011;5863;52.832;4.758;2022-07-04T02:30:12;7.25;;;2.30;;
11614;SDS011;5863;52.832;4.758;2022-07-04T02:32:40;5.80;;;1.90;;
11614;SDS011;5863;52.832;4.758;2022-07-04T02:35:07;7.93;;;2.20;;
11614;SDS011;5863;52.832;4.758;2022-07-04T02:37:35;10.65;;;2.60;;
11614;SDS011;5863;52.832;4.758;2022-07-04T02:40:02;9.75;;;2.13;;
11614;SDS011;5863;52.832;4.758;2022-07-04T02:42:31;7.78;;;1.83;;
11614;SDS011;5863;52.832;4.758;2022-07-04T02:44:58;7.47;;;1.90;;
11614;SDS011;5863;52.832;4.758;2022-07-04T02:47:25;5.70;;;1.85;;
11614;SDS011;5863;52.832;4.758;2022-07-04T02:49:52;11.38;;;2.70;;
11614;SDS011;5863;52.832;4.758;2022-07-04T02:52:20;8.63;;;2.17;;
11614;SDS011;5863;52.832;4.758;2022-07-04T02:54:47;7.50;;;1.98;;
11614;SDS011;5863;52.832;4.758;2022-07-04T02:57:13;7.93;;;1.92;;
11614;SDS011;5863;52.832;4.758;2022-07-04T02:59:42;8.05;;;2.58;;
11614;SDS011;5863;52.832;4.758;2022-07-04T03:02:08;9.15;;;2.50;;
11614;SDS011;5863;52.832;4.758;2022-07-04T03:04:36;6.25;;;2.40;;
11614;SDS011;5863;52.832;4.758;2022-07-04T03:07:05;9.73;;;2.30;;
11614;SDS011;5863;52.832;4.758;2022-07-04T03:09:31;7.43;;;2.20;;
11614;SDS011;5863;52.832;4.758;2022-07-04T03:11:58;10.90;;;2.22;;
11614;SDS011;5863;52.832;4.758;2022-07-04T03:14:25;5.50;;;1.90;;
11614;SDS011;5863;52.832;4.758;2022-07-04T03:16:53;6.53;;;2.28;;
11614;SDS011;5863;52.832;4.758;2022-07-04T03:19:20;6.45;;;2.03;;
11614;SDS011;5863;52.832;4.758;2022-07-04T03:21:46;8.43;;;2.30;;
11614;SDS011;5863;52.832;4.758;2022-07-04T03:24:13;9.07;;;2.65;;
11614;SDS011;5863;52.832;4.758;2022-07-04T03:26:40;4.78;;;2.17;;
11614;SDS011;5863;52.832;4.758;2022-07-04T03:29:07;7.75;;;2.17;;
11614;SDS011;5863;52.832;4.758;2022-07-04T03:31:34;6.55;;;2.55;;
11614;SDS011;5863;52.832;4.758;2022-07-04T03:34:02;6.72;;;2.33;;
11614;SDS011;5863;52.832;4.758;2022-07-04T03:36:28;4.50;;;2.20;;
11614;SDS011;5863;52.832;4.758;2022-07-04T03:38:55;3.80;;;2.00;;
11614;SDS011;5863;52.832;4.758;2022-07-04T03:41:22;5.10;;;2.03;;
11614;SDS011;5863;52.832;4.758;2022-07-04T03:43:48;3.00;;;2.03;;
11614;SDS011;5863;52.832;4.758;2022-07-04T03:46:15;4.40;;;2.20;;
11614;SDS011;5863;52.832;4.758;2022-07-04T03:48:42;5.10;;;2.00;;
11614;SDS011;5863;52.832;4.758;2022-07-04T03:51:10;4.25;;;2.15;;
11614;SDS011;5863;52.832;4.758;2022-07-04T03:53:38;5.15;;;2.25;;
11614;SDS011;5863;52.832;4.758;2022-07-04T03:56:05;5.63;;;2.40;;
11614;SDS011;5863;52.832;4.758;2022-07-04T03:58:33;4.20;;;2.47;;
11614;SDS011;5863;52.832;4.758;2022-07-04T04:01:00;6.13;;;2.20;;
11614;SDS011;5863;52.832;4.758;2022-07-04T04:03:26;3.58;;;1.92;;
11614;SDS011;5863;52.832;4.758;2022-07-04T04:06:12;7.15;;;2.42;;
11614;SDS011;5863;52.832;4.758;2022-07-04T04:08:39;2.53;;;1.80;;
11614;SDS011;5863;52.832;4.758;2022-07-04T04:11:06;3.35;;;1.70;;
11614;SDS011;5863;52.832;4.758;2022-07-04T04:13:32;4.13;;;2.20;;
11614;SDS011;5863;52.832;4.758;2022-07-04T04:15:59;4.63;;;2.13;;
11614;SDS011;5863;52.832;4.758;2022-07-04T04:18:26;4.28;;;1.77;;
11614;SDS011;5863;52.832;4.758;2022-07-04T04:20:53;4.07;;;1.65;;
11614;SDS011;5863;52.832;4.758;2022-07-04T04:23:21;4.95;;;2.08;;
11614;SDS011;5863;52.832;4.758;2022-07-04T04:25:47;3.80;;;1.95;;
11614;SDS011;5863;52.832;4.758;2022-07-04T04:28:14;3.10;;;1.80;;
11614;SDS011;5863;52.832;4.758;2022-07-04T04:30:41;5.90;;;2.00;;
11614;SDS011;5863;52.832;4.758;2022-07-04T04:33:08;4.43;;;1.70;;
11614;SDS011;5863;52.832;4.758;2022-07-04T04:35:34;2.92;;;1.60;;
11614;SDS011;5863;52.832;4.758;2022-07-04T04:38:01;1.90;;;1.80;;
11614;SDS011;5863;52.832;4.758;2022-07-04T04:40:29;3.15;;;2.00;;
11614;SDS011;5863;52.832;4.758;2022-07-04T04:42:56;2.65;;;2.13;;
11614;SDS011;5863;52.832;4.758;2022-07-04T04:45:23;2.90;;;1.92;;
11614;SDS011;5863;52.832;4.758;2022-07-04T04:47:50;2.63;;;1.90;;
11614;SDS011;5863;52.832;4.758;2022-07-04T04:50:18;6.05;;;1.90;;
11614;SDS011;5863;52.832;4.758;2022-07-04T04:52:45;2.15;;;1.70;;
11614;SDS011;5863;52.832;4.758;2022-07-04T04:55:12;3.75;;;1.90;;
11614;SDS011;5863;52.832;4.758;2022-07-04T04:57:40;3.45;;;2.05;;
11614;SDS011;5863;52.832;4.758;2022-07-04T05:00:07;2.70;;;1.60;;
11614;SDS011;5863;52.832;4.758;2022-07-04T05:02:35;2.30;;;1.50;;
11614;SDS011;5863;52.832;4.758;2022-07-04T05:05:02;4.22;;;1.80;;
11614;SDS011;5863;52.832;4.758;2022-07-04T05:07:29;4.28;;;1.90;;
11614;SDS011;5863;52.832;4.758;2022-07-04T05:09:56;3.28;;;1.83;;
11614;SDS011;5863;52.832;4.758;2022-07-04T05:12:24;2.38;;;1.73;;
11614;SDS011;5863;52.832;4.758;2022-07-04T05:14:52;5.30;;;1.85;;
11614;SDS011;5863;52.832;4.758;2022-07-04T05:17:19;5.95;;;2.08;;
11614;SDS011;5863;52.832;4.758;2022-07-04T05:19:46;2.63;;;1.70;;
11614;SDS011;5863;52.832;4.758;2022-07-04T05:22:13;3.88;;;1.80;;
11614;SDS011;5863;52.832;4.758;2022-07-04T05:24:40;3.38;;;1.70;;
11614;SDS011;5863;52.832;4.758;2022-07-04T05:27:07;3.53;;;1.48;;
11614;SDS011;5863;52.832;4.758;2022-07-04T05:29:34;4.30;;;1.80;;
11614;SDS011;5863;52.832;4.758;2022-07-04T05:32:02;3.42;;;1.65;;
11614;SDS011;5863;52.832;4.758;2022-07-04T05:34:29;4.53;;;1.83;;
11614;SDS011;5863;52.832;4.758;2022-07-04T05:36:56;2.42;;;1.50;;
11614;SDS011;5863;52.832;4.758;2022-07-04T05:39:23;1.92;;;1.73;;
11614;SDS011;5863;52.832;4.758;2022-07-04T05:41:50;2.90;;;1.73;;
11614;SDS011;5863;52.832;4.758;2022-07-04T05:44:16;5.07;;;1.90;;
11614;SDS011;5863;52.832;4.758;2022-07-04T05:46:43;2.58;;;1.60;;
11614;SDS011;5863;52.832;4.758;2022-07-04T05:49:11;6.32;;;1.90;;
11614;SDS011;5863;52.832;4.758;2022-07-04T05:51:38;4.50;;;1.60;;
11614;SDS011;5863;52.832;4.758;2022-07-04T05:54:05;4.13;;;1.70;;
11614;SDS011;5863;52.832;4.758;2022-07-04T05:56:31;3.63;;;1.83;;
11614;SDS011;5863;52.832;4.758;2022-07-04T05:58:58;2.22;;;1.40;;
11614;SDS011;5863;52.832;4.758;2022-07-04T06:01:25;5.68;;;1.75;;
11614;SDS011;5863;52.832;4.758;2022-07-04T06:03:52;3.78;;;1.70;;
11614;SDS011;5863;52.832;4.758;2022-07-04T06:06:20;2.00;;;1.50;;
11614;SDS011;5863;52.832;4.758;2022-07-04T06:08:47;3.97;;;1.95;;
11614;SDS011;5863;52.832;4.758;2022-07-04T06:11:13;6.93;;;1.65;;
11614;SDS011;5863;52.832;4.758;2022-07-04T06:13:42;4.95;;;1.45;;
11614;SDS011;5863;52.832;4.758;2022-07-04T06:16:10;6.07;;;1.83;;
11614;SDS011;5863;52.832;4.758;2022-07-04T06:18:36;4.85;;;1.67;;
11614;SDS011;5863;52.832;4.758;2022-07-04T06:21:03;2.30;;;1.42;;
11614;SDS011;5863;52.832;4.758;2022-07-04T06:23:31;3.22;;;1.50;;
11614;SDS011;5863;52.832;4.758;2022-07-04T06:25:58;2.78;;;1.60;;
11614;SDS011;5863;52.832;4.758;2022-07-04T06:28:25;2.70;;;1.67;;
11614;SDS011;5863;52.832;4.758;2022-07-04T06:30:52;3.47;;;1.75;;
11614;SDS011;5863;52.832;4.758;2022-07-04T06:33:18;4.70;;;1.90;;
11614;SDS011;5863;52.832;4.758;2022-07-04T06:35:45;3.00;;;1.60;;
11614;SDS011;5863;52.832;4.758;2022-07-04T06:38:11;5.50;;;1.58;;
11614;SDS011;5863;52.832;4.758;2022-07-04T06:40:41;3.42;;;1.60;;
11614;SDS011;5863;52.832;4.758;2022-07-04T06:43:08;6.18;;;1.95;;
11614;SDS011;5863;52.832;4.758;2022-07-04T06:45:35;3.28;;;1.80;;
11614;SDS011;5863;52.832;4.758;2022-07-04T06:48:03;3.25;;;1.95;;
11614;SDS011;5863;52.832;4.758;2022-07-04T06:50:30;3.70;;;1.83;;
11614;SDS011;5863;52.832;4.758;2022-07-04T06:52:58;2.55;;;1.85;;
11614;SDS011;5863;52.832;4.758;2022-07-04T06:55:34;2.88;;;1.60;;
11614;SDS011;5863;52.832;4.758;2022-07-04T06:58:03;3.80;;;1.60;;
11614;SDS011;5863;52.832;4.758;2022-07-04T07:00:31;5.55;;;1.80;;
11614;SDS011;5863;52.832;4.758;2022-07-04T07:02:57;3.05;;;1.52;;
11614;SDS011;5863;52.832;4.758;2022-07-04T07:05:25;3.30;;;1.60;;
11614;SDS011;5863;52.832;4.758;2022-07-04T07:07:52;2.50;;;1.45;;
11614;SDS011;5863;52.832;4.758;2022-07-04T07:10:19;5.35;;;1.75;;
11614;SDS011;5863;52.832;4.758;2022-07-04T07:12:46;4.70;;;1.70;;
11614;SDS011;5863;52.832;4.758;2022-07-04T07:15:15;2.22;;;1.10;;
11614;SDS011;5863;52.832;4.758;2022-07-04T07:17:44;3.10;;;1.60;;
11614;SDS011;5863;52.832;4.758;2022-07-04T07:20:11;4.47;;;1.75;;
11614;SDS011;5863;52.832;4.758;2022-07-04T07:22:38;2.90;;;1.40;;
11614;SDS011;5863;52.832;4.758;2022-07-04T07:25:06;3.03;;;1.30;;
11614;SDS011;5863;52.832;4.758;2022-07-04T07:27:33;4.53;;;1.65;;
11614;SDS011;5863;52.832;4.758;2022-07-04T07:30:00;3.17;;;1.15;;
11614;SDS011;5863;52.832;4.758;2022-07-04T07:32:28;3.72;;;1.38;;
11614;SDS011;5863;52.832;4.758;2022-07-04T07:34:55;3.08;;;1.42;;
11614;SDS011;5863;52.832;4.758;2022-07-04T07:37:22;3.10;;;1.10;;
11614;SDS011;5863;52.832;4.758;2022-07-04T07:39:49;3.13;;;1.42;;
11614;SDS011;5863;52.832;4.758;2022-07-04T07:42:16;3.90;;;1.15;;
11614;SDS011;5863;52.832;4.758;2022-07-04T07:44:43;2.40;;;1.10;;
11614;SDS011;5863;52.832;4.758;2022-07-04T07:47:11;9.45;;;1.50;;
11614;SDS011;5863;52.832;4.758;2022-07-04T07:49:39;9.00;;;1.90;;
11614;SDS011;5863;52.832;4.758;2022-07-04T07:52:06;5.68;;;1.30;;
11614;SDS011;5863;52.832;4.758;2022-07-04T07:54:33;2.72;;;1.13;;
11614;SDS011;5863;52.832;4.758;2022-07-04T07:57:00;2.47;;;1.30;;
11614;SDS011;5863;52.832;4.758;2022-07-04T07:59:26;2.33;;;1.23;;
11614;SDS011;5863;52.832;4.758;2022-07-04T08:01:53;3.15;;;1.23;;
11614;SDS011;5863;52.832;4.758;2022-07-04T08:04:20;3.25;;;1.10;;
11614;SDS011;5863;52.832;4.758;2022-07-04T08:07:04;5.32;;;1.25;;
11614;SDS011;5863;52.832;4.758;2022-07-04T08:09:31;3.72;;;1.40;;
11614;SDS011;5863;52.832;4.758;2022-07-04T08:11:59;2.72;;;1.30;;
11614;SDS011;5863;52.832;4.758;2022-07-04T08:14:27;4.60;;;1.40;;
11614;SDS011;5863;52.832;4.758;2022-07-04T08:16:54;2.45;;;1.20;;
11614;SDS011;5863;52.832;4.758;2022-07-04T08:19:20;5.38;;;1.20;;
11614;SDS011;5863;52.832;4.758;2022-07-04T08:21:47;2.35;;;1.10;;
11614;SDS011;5863;52.832;4.758;2022-07-04T08:24:15;4.40;;;1.55;;
11614;SDS011;5863;52.832;4.758;2022-07-04T08:26:42;4.57;;;1.40;;
11614;SDS011;5863;52.832;4.758;2022-07-04T08:29:10;3.22;;;1.55;;
11614;SDS011;5863;52.832;4.758;2022-07-04T08:31:37;2.70;;;1.02;;
11614;SDS011;5863;52.832;4.758;2022-07-04T08:34:04;5.47;;;1.40;;
11614;SDS011;5863;52.832;4.758;2022-07-04T08:36:30;4.88;;;1.20;;
11614;SDS011;5863;52.832;4.758;2022-07-04T08:38:57;3.67;;;1.33;;
11614;SDS011;5863;52.832;4.758;2022-07-04T08:41:26;2.78;;;1.20;;
11614;SDS011;5863;52.832;4.758;2022-07-04T08:43:54;3.35;;;1.35;;
11614;SDS011;5863;52.832;4.758;2022-07-04T08:46:23;3.60;;;1.23;;
11614;SDS011;5863;52.832;4.758;2022-07-04T08:48:52;3.40;;;1.50;;
11614;SDS011;5863;52.832;4.758;2022-07-04T08:51:23;3.50;;;1.30;;
11614;SDS011;5863;52.832;4.758;2022-07-04T08:53:58;2.28;;;1.10;;
11614;SDS011;5863;52.832;4.758;2022-07-04T08:56:28;4.07;;;1.20;;
11614;SDS011;5863;52.832;4.758;2022-07-04T08:59:12;3.78;;;1.30;;
11614;SDS011;5863;52.832;4.758;2022-07-04T09:01:40;2.83;;;1.35;;
11614;SDS011;5863;52.832;4.758;2022-07-04T09:04:09;4.50;;;1.20;;
11614;SDS011;5863;52.832;4.758;2022-07-04T09:06:37;2.65;;;1.40;;
11614;SDS011;5863;52.832;4.758;2022-07-04T09:09:04;2.53;;;1.23;;
11614;SDS011;5863;52.832;4.758;2022-07-04T09:11:34;2.25;;;1.20;;
11614;SDS011;5863;52.832;4.758;2022-07-04T09:14:01;3.78;;;1.50;;
11614;SDS011;5863;52.832;4.758;2022-07-04T09:16:27;2.55;;;1.25;;
11614;SDS011;5863;52.832;4.758;2022-07-04T09:18:54;2.92;;;1.27;;
11614;SDS011;5863;52.832;4.758;2022-07-04T09:21:21;3.47;;;1.20;;
11614;SDS011;5863;52.832;4.758;2022-07-04T09:24:07;1.92;;;1.10;;
11614;SDS011;5863;52.832;4.758;2022-07-04T09:26:35;5.50;;;1.60;;
11614;SDS011;5863;52.832;4.758;2022-07-04T09:29:06;3.13;;;1.45;;
11614;SDS011;5863;52.832;4.758;2022-07-04T09:31:33;4.75;;;1.27;;
11614;SDS011;5863;52.832;4.758;2022-07-04T09:34:00;3.55;;;1.15;;
11614;SDS011;5863;52.832;4.758;2022-07-04T09:36:29;1.70;;;1.20;;
11614;SDS011;5863;52.832;4.758;2022-07-04T09:39:03;2.40;;;1.40;;
11614;SDS011;5863;52.832;4.758;2022-07-04T09:41:32;3.88;;;1.30;;
11614;SDS011;5863;52.832;4.758;2022-07-04T09:44:17;4.43;;;1.50;;
11614;SDS011;5863;52.832;4.758;2022-07-04T09:46:45;4.15;;;1.00;;
11614;SDS011;5863;52.832;4.758;2022-07-04T09:49:12;1.90;;;1.02;;
11614;SDS011;5863;52.832;4.758;2022-07-04T09:51:39;3.47;;;1.40;;
11614;SDS011;5863;52.832;4.758;2022-07-04T09:54:14;3.05;;;1.42;;
11614;SDS011;5863;52.832;4.758;2022-07-04T09:56:45;5.28;;;1.23;;
11614;SDS011;5863;52.832;4.758;2022-07-04T09:59:14;2.30;;;1.30;;
11614;SDS011;5863;52.832;4.758;2022-07-04T10:01:41;2.67;;;1.20;;
11614;SDS011;5863;52.832;4.758;2022-07-04T10:04:08;3.22;;;1.35;;
11614;SDS011;5863;52.832;4.758;2022-07-04T10:06:37;4.90;;;1.38;;
11614;SDS011;5863;52.832;4.758;2022-07-04T10:09:06;4.68;;;1.42;;
11614;SDS011;5863;52.832;4.758;2022-07-04T10:11:34;3.97;;;1.30;;
11614;SDS011;5863;52.832;4.758;2022-07-04T10:14:03;3.65;;;1.40;;
11614;SDS011;5863;52.832;4.758;2022-07-04T10:16:32;4.15;;;1.38;;
11614;SDS011;5863;52.832;4.758;2022-07-04T10:18:59;2.78;;;1.20;;
11614;SDS011;5863;52.832;4.758;2022-07-04T10:21:28;3.17;;;1.17;;
11614;SDS011;5863;52.832;4.758;2022-07-04T10:23:56;1.98;;;1.00;;
11614;SDS011;5863;52.832;4.758;2022-07-04T10:26:23;2.78;;;1.25;;
11614;SDS011;5863;52.832;4.758;2022-07-04T10:28:50;2.35;;;1.20;;
11614;SDS011;5863;52.832;4.758;2022-07-04T10:31:18;3.65;;;1.13;;
11614;SDS011;5863;52.832;4.758;2022-07-04T10:33:47;2.92;;;1.10;;
11614;SDS011;5863;52.832;4.758;2022-07-04T10:36:16;2.88;;;0.90;;
11614;SDS011;5863;52.832;4.758;2022-07-04T10:38:47;2.03;;;1.05;;
11614;SDS011;5863;52.832;4.758;2022-07-04T10:41:16;1.50;;;1.05;;
11614;SDS011;5863;52.832;4.758;2022-07-04T10:43:55;2.03;;;0.90;;
11614;SDS011;5863;52.832;4.758;2022-07-04T10:46:29;2.03;;;0.90;;
11614;SDS011;5863;52.832;4.758;2022-07-04T10:48:59;1.50;;;1.13;;
11614;SDS011;5863;52.832;4.758;2022-07-04T10:51:34;3.72;;;1.17;;
11614;SDS011;5863;52.832;4.758;2022-07-04T10:54:06;1.88;;;0.90;;
11614;SDS011;5863;52.832;4.758;2022-07-04T10:56:35;1.27;;;0.65;;
11614;SDS011;5863;52.832;4.758;2022-07-04T10:59:14;3.00;;;0.77;;
11614;SDS011;5863;52.832;4.758;2022-07-04T11:01:47;1.60;;;0.90;;
11614;SDS011;5863;52.832;4.758;2022-07-04T11:07:12;1.45;;;0.80;;
11614;SDS011;5863;52.832;4.758;2022-07-04T11:09:39;3.15;;;1.00;;
11614;SDS011;5863;52.832;4.758;2022-07-04T11:12:06;1.20;;;0.88;;
11614;SDS011;5863;52.832;4.758;2022-07-04T11:14:34;2.58;;;0.90;;
11614;SDS011;5863;52.832;4.758;2022-07-04T11:17:02;2.15;;;1.23;;
11614;SDS011;5863;52.832;4.758;2022-07-04T11:19:30;2.80;;;0.80;;
11614;SDS011;5863;52.832;4.758;2022-07-04T11:21:58;1.92;;;1.10;;
11614;SDS011;5863;52.832;4.758;2022-07-04T11:24:25;5.47;;;1.25;;
11614;SDS011;5863;52.832;4.758;2022-07-04T11:26:53;1.45;;;0.70;;
11614;SDS011;5863;52.832;4.758;2022-07-04T11:29:20;2.08;;;1.02;;
11614;SDS011;5863;52.832;4.758;2022-07-04T11:31:47;1.58;;;0.88;;
11614;SDS011;5863;52.832;4.758;2022-07-04T11:34:15;2.95;;;1.02;;
11614;SDS011;5863;52.832;4.758;2022-07-04T11:36:42;1.30;;;0.90;;
11614;SDS011;5863;52.832;4.758;2022-07-04T11:39:12;2.25;;;1.02;;
11614;SDS011;5863;52.832;4.758;2022-07-04T11:41:40;1.80;;;0.85;;
11614;SDS011;5863;52.832;4.758;2022-07-04T11:44:26;2.03;;;0.70;;
11614;SDS011;5863;52.832;4.758;2022-07-04T11:47:12;2.97;;;0.90;;
11614;SDS011;5863;52.832;4.758;2022-07-04T11:49:41;1.63;;;1.00;;
11614;SDS011;5863;52.832;4.758;2022-07-04T11:52:09;2.20;;;1.13;;
11614;SDS011;5863;52.832;4.758;2022-07-04T11:54:37;3.72;;;0.98;;
11614;SDS011;5863;52.832;4.758;2022-07-04T11:57:15;1.77;;;0.95;;
11614;SDS011;5863;52.832;4.758;2022-07-04T11:59:51;3.30;;;0.88;;
11614;SDS011;5863;52.832;4.758;2022-07-04T12:02:19;1.73;;;1.15;;
11614;SDS011;5863;52.832;4.758;2022-07-04T12:04:46;1.73;;;1.08;;
11614;SDS011;5863;52.832;4.758;2022-07-04T12:07:13;1.10;;;0.90;;
11614;SDS011;5863;52.832;4.758;2022-07-04T12:09:43;2.83;;;0.70;;
11614;SDS011;5863;52.832;4.758;2022-07-04T12:12:11;1.75;;;0.80;;
11614;SDS011;5863;52.832;4.758;2022-07-04T12:14:39;2.28;;;1.13;;
11614;SDS011;5863;52.832;4.758;2022-07-04T12:17:15;1.88;;;1.02;;
11614;SDS011;5863;52.832;4.758;2022-07-04T12:19:53;3.03;;;1.23;;
11614;SDS011;5863;52.832;4.758;2022-07-04T12:22:28;2.25;;;1.20;;
11614;SDS011;5863;52.832;4.758;2022-07-04T12:24:59;3.38;;;1.02;;
11614;SDS011;5863;52.832;4.758;2022-07-04T12:27:27;6.15;;;1.25;;
11614;SDS011;5863;52.832;4.758;2022-07-04T12:29:56;2.55;;;1.10;;
11614;SDS011;5863;52.832;4.758;2022-07-04T12:32:24;3.45;;;1.10;;
11614;SDS011;5863;52.832;4.758;2022-07-04T12:35:10;3.25;;;1.17;;
11614;SDS011;5863;52.832;4.758;2022-07-04T12:37:59;2.72;;;1.00;;
11614;SDS011;5863;52.832;4.758;2022-07-04T12:40:29;4.45;;;0.90;;
11614;SDS011;5863;52.832;4.758;2022-07-04T12:42:55;1.90;;;0.88;;
11614;SDS011;5863;52.832;4.758;2022-07-04T12:45:22;1.08;;;0.98;;
11614;SDS011;5863;52.832;4.758;2022-07-04T12:47:49;3.83;;;1.00;;
11614;SDS011;5863;52.832;4.758;2022-07-04T12:50:24;2.10;;;0.95;;
11614;SDS011;5863;52.832;4.758;2022-07-04T12:52:51;0.90;;;0.70;;
11614;SDS011;5863;52.832;4.758;2022-07-04T12:55:18;1.90;;;0.75;;
11614;SDS011;5863;52.832;4.758;2022-07-04T12:57:46;1.85;;;0.73;;
11614;SDS011;5863;52.832;4.758;2022-07-04T13:00:13;3.55;;;0.73;;
11614;SDS011;5863;52.832;4.758;2022-07-04T13:02:40;2.40;;;0.80;;
11614;SDS011;5863;52.832;4.758;2022-07-04T13:05:07;0.85;;;0.70;;
11614;SDS011;5863;52.832;4.758;2022-07-04T13:07:34;0.88;;;0.75;;
11614;SDS011;5863;52.832;4.758;2022-07-04T13:10:00;1.83;;;0.90;;
11614;SDS011;5863;52.832;4.758;2022-07-04T13:12:27;3.67;;;0.90;;
11614;SDS011;5863;52.832;4.758;2022-07-04T13:14:56;0.90;;;0.60;;
11614;SDS011;5863;52.832;4.758;2022-07-04T13:17:24;1.48;;;0.90;;
11614;SDS011;5863;52.832;4.758;2022-07-04T13:19:51;2.22;;;1.05;;
11614;SDS011;5863;52.832;4.758;2022-07-04T13:22:19;2.42;;;0.68;;
11614;SDS011;5863;52.832;4.758;2022-07-04T13:24:47;2.10;;;0.70;;
11614;SDS011;5863;52.832;4.758;2022-07-04T13:27:14;4.47;;;0.73;;
11614;SDS011;5863;52.832;4.758;2022-07-04T13:29:42;1.98;;;0.85;;
11614;SDS011;5863;52.832;4.758;2022-07-04T13:32:10;2.17;;;0.80;;
11614;SDS011;5863;52.832;4.758;2022-07-04T13:34:39;2.28;;;0.95;;
11614;SDS011;5863;52.832;4.758;2022-07-04T13:37:05;1.92;;;0.85;;
11614;SDS011;5863;52.832;4.758;2022-07-04T13:39:32;1.67;;;0.80;;
11614;SDS011;5863;52.832;4.758;2022-07-04T13:41:59;2.17;;;1.00;;
11614;SDS011;5863;52.832;4.758;2022-07-04T13:44:27;2.72;;;1.00;;
11614;SDS011;5863;52.832;4.758;2022-07-04T13:46:54;1.30;;;0.73;;
11614;SDS011;5863;52.832;4.758;2022-07-04T13:49:24;3.58;;;1.00;;
11614;SDS011;5863;52.832;4.758;2022-07-04T13:51:51;1.67;;;1.02;;
11614;SDS011;5863;52.832;4.758;2022-07-04T13:54:18;2.00;;;1.05;;
11614;SDS011;5863;52.832;4.758;2022-07-04T13:56:45;2.38;;;1.10;;
11614;SDS011;5863;52.832;4.758;2022-07-04T13:59:12;3.53;;;0.90;;
11614;SDS011;5863;52.832;4.758;2022-07-04T14:01:39;2.33;;;1.00;;
11614;SDS011;5863;52.832;4.758;2022-07-04T14:04:06;1.50;;;0.90;;
11614;SDS011;5863;52.832;4.758;2022-07-04T14:06:34;2.55;;;1.00;;
11614;SDS011;5863;52.832;4.758;2022-07-04T14:09:01;1.67;;;0.70;;
11614;SDS011;5863;52.832;4.758;2022-07-04T14:11:28;1.02;;;0.85;;
11614;SDS011;5863;52.832;4.758;2022-07-04T14:13:55;1.60;;;0.80;;
11614;SDS011;5863;52.832;4.758;2022-07-04T14:16:22;1.05;;;0.90;;
11614;SDS011;5863;52.832;4.758;2022-07-04T14:18:49;1.90;;;0.82;;
11614;SDS011;5863;52.832;4.758;2022-07-04T14:21:15;1.33;;;0.85;;
11614;SDS011;5863;52.832;4.758;2022-07-04T14:23:44;1.52;;;0.85;;
11614;SDS011;5863;52.832;4.758;2022-07-04T14:26:11;1.95;;;0.90;;
11614;SDS011;5863;52.832;4.758;2022-07-04T14:28:41;2.95;;;1.10;;
11614;SDS011;5863;52.832;4.758;2022-07-04T14:31:13;3.20;;;0.93;;
11614;SDS011;5863;52.832;4.758;2022-07-04T14:33:40;1.77;;;0.68;;
11614;SDS011;5863;52.832;4.758;2022-07-04T14:36:09;2.58;;;0.80;;
11614;SDS011;5863;52.832;4.758;2022-07-04T14:38:36;2.28;;;1.00;;
11614;SDS011;5863;52.832;4.758;2022-07-04T14:41:04;1.00;;;0.90;;
11614;SDS011;5863;52.832;4.758;2022-07-04T14:43:37;2.75;;;1.02;;
11614;SDS011;5863;52.832;4.758;2022-07-04T14:46:05;1.50;;;0.82;;
11614;SDS011;5863;52.832;4.758;2022-07-04T14:48:32;1.98;;;1.00;;
11614;SDS011;5863;52.832;4.758;2022-07-04T14:50:58;2.65;;;1.00;;
11614;SDS011;5863;52.832;4.758;2022-07-04T14:53:26;3.70;;;0.80;;
11614;SDS011;5863;52.832;4.758;2022-07-04T14:55:52;1.40;;;0.80;;
11614;SDS011;5863;52.832;4.758;2022-07-04T14:58:21;3.35;;;0.93;;
11614;SDS011;5863;52.832;4.758;2022-07-04T15:00:47;1.10;;;0.80;;
11614;SDS011;5863;52.832;4.758;2022-07-04T15:03:14;2.97;;;1.00;;
11614;SDS011;5863;52.832;4.758;2022-07-04T15:05:41;1.38;;;0.80;;
11614;SDS011;5863;52.832;4.758;2022-07-04T15:08:08;1.48;;;0.85;;
11614;SDS011;5863;52.832;4.758;2022-07-04T15:10:35;1.63;;;0.90;;